Kezdőlap
METAR-TAF:

METAR-TAF

Repülőterek :

Mitiga International Airport

Tripoli, Líbia

földrajzi szélesség: 32-54N, földrajzi hosszúság: 13-17E, magasság: 11 m

Jelenlegi meteorológiai megfigyelések

A jelentés 58 perccel ezelõtt készült, 13:50 UTC
Kelet-északkeleti szél 8 kt
Hőmérséklet 29°C
Páratartalom 70%
Légköri nyomás 1016 hPa
Látótávolság: 8000 m

METAR: HLLM 161350Z 07008KT 8000 29/23 Q1016

Idő: 16:48 (14:48 UTC)

Előrejelzés

A jelentés 15 órával és 48 perccel ezelõtt készült, 23:00 UTC
Az előrejelzés 16-én 00 óra UTC és 16-én 24 óra UTC között érvényes
Északkeleti szél 12 kt
Látótávolság 10 km, vagy több
felhőtlen 1500 m magasságban, és nincs gomolyfelhõ

TAF: HLLM 152300Z 1600/1624 VRB02KT CAVOK BECMG1610/1612 04012KT

Meteorológiai megfigyelések és előrejelzések több, mint 4000 repülőtéren (METAR és TAF jelentéseket).

A térképen piros és sárga pontok jelzik az elérhető meteorológiai állomásokat.

Mozgassa az egeret a pont fölött, hogy megjelenjen az állomás neve.

Azután kattintson az időjárási megfigyelések és előrejelzések megtekintéséhez.

A térkép megváltoztatása: kattintson a fekete keresztel jelölt zöld gombra ráközelítéshez, a vonallal jelölt zöld gombra távolításhoz, vagy a zöld nyilakra a szomszédos térképek eléréséhez.


METAR-TAF: